Time;durP1;ratioP1;P1;durP2;ratioP2;P2;SDS_P1;SDS_P2;PMS_P1;PMS_P2;Temp;Humidity;BMP_temperature;BMP_pressure;BME280_temperature;BME280_humidity;BME280_pressure;Samples;Min_cycle;Max_cycle;Signal;HPM_P1;HPM_P2
2023/12/16 00:00:02;;;;;;;13.60;4.43;;;;;;;9.52;66.38;103853.66;6193707;23;20116;-70
2023/12/16 00:02:30;;;;;;;12.13;4.57;;;;;;;9.52;66.37;103858.19;6194918;23;20021;-70
2023/12/16 00:04:58;;;;;;;10.90;5.03;;;;;;;9.50;66.53;103857.47;6194211;23;20029;-70
2023/12/16 00:07:27;;;;;;;14.48;4.72;;;;;;;9.53;66.61;103863.41;6193959;23;20028;-70
2023/12/16 00:09:55;;;;;;;9.98;3.75;;;;;;;9.51;66.49;103862.69;6194995;23;20104;-71
2023/12/16 00:12:23;;;;;;;10.48;4.40;;;;;;;9.51;66.41;103861.84;6195100;23;20056;-71
2023/12/16 00:14:52;;;;;;;13.10;4.60;;;;;;;9.50;66.16;103863.69;6194064;23;20084;-71
2023/12/16 00:17:20;;;;;;;12.88;4.15;;;;;;;9.50;65.97;103869.06;6194956;23;20098;-71
2023/12/16 00:19:47;;;;;;;13.73;4.72;;;;;;;9.51;65.81;103869.91;6193295;23;20033;-70
2023/12/16 00:22:15;;;;;;;15.75;4.85;;;;;;;9.52;65.94;103869.78;6194116;23;20048;-72
2023/12/16 00:24:44;;;;;;;11.77;4.15;;;;;;;9.52;66.21;103867.09;6194848;23;20021;-72
2023/12/16 00:27:12;;;;;;;13.75;4.60;;;;;;;9.52;66.44;103867.09;6194499;23;20032;-72
2023/12/16 00:29:41;;;;;;;13.48;4.30;;;;;;;9.51;66.18;103876.13;6194310;23;20171;-72
2023/12/16 00:32:08;;;;;;;17.58;4.63;;;;;;;9.52;66.23;103860.88;6195109;23;20017;-72
2023/12/16 00:34:36;;;;;;;13.80;5.03;;;;;;;9.51;65.97;103860.03;6195642;23;20102;-72
2023/12/16 00:37:05;;;;;;;13.73;4.72;;;;;;;9.52;66.10;103858.19;6196375;23;20028;-72
2023/12/16 00:39:33;;;;;;;9.15;4.32;;;;;;;9.52;65.96;103855.50;6195553;23;20037;-70
2023/12/16 00:42:03;;;;;;;13.85;4.80;;;;;;;9.53;65.91;103855.34;6196610;23;20025;-70
2023/12/16 00:44:31;;;;;;;14.98;4.63;;;;;;;9.53;65.84;103854.50;6195812;23;20029;-70
2023/12/16 00:46:59;;;;;;;15.00;4.30;;;;;;;9.50;65.97;103844.91;6196821;23;20024;-71
2023/12/16 00:49:27;;;;;;;9.43;3.55;;;;;;;9.52;65.71;103842.06;6194616;23;20490;-71
2023/12/16 00:51:56;;;;;;;15.60;3.65;;;;;;;9.51;65.68;103843.91;6196323;23;20017;-72
2023/12/16 00:54:24;;;;;;;12.00;4.22;;;;;;;9.51;65.41;103849.28;6195285;23;20088;-72
2023/12/16 00:56:52;;;;;;;11.02;3.78;;;;;;;9.52;65.89;103842.91;6197191;23;20021;-72
2023/12/16 00:59:22;;;;;;;8.93;3.40;;;;;;;9.50;65.46;103850.28;6195570;23;20261;-71
2023/12/16 01:01:50;;;;;;;10.23;4.03;;;;;;;9.51;65.70;103854.66;6196851;23;20033;-71
2023/12/16 01:04:18;;;;;;;9.18;3.28;;;;;;;9.50;65.87;103852.09;6195000;23;20031;-70
2023/12/16 01:06:46;;;;;;;9.95;3.33;;;;;;;9.47;66.15;103847.88;6196729;23;20025;-71
2023/12/16 01:09:14;;;;;;;12.65;3.80;;;;;;;9.42;66.36;103850.97;6194442;23;20029;-71
2023/12/16 01:11:42;;;;;;;8.70;3.25;;;;;;;9.45;66.17;103853.38;6196510;23;20023;-71
2023/12/16 01:14:10;;;;;;;11.32;3.45;;;;;;;9.44;66.57;103854.38;6196143;23;20029;-71
2023/12/16 01:16:39;;;;;;;9.10;3.10;;;;;;;9.42;66.28;103850.97;6196402;23;20036;-71
2023/12/16 01:19:07;;;;;;;8.15;3.35;;;;;;;9.43;66.59;103858.03;6195209;23;20098;-71
2023/12/16 01:21:40;;;;;;;11.20;3.55;;;;;;;9.42;66.65;103859.03;6195380;23;20021;-70
2023/12/16 01:24:09;;;;;;;9.38;4.07;;;;;;;9.41;66.52;103861.84;6195902;23;20084;-70
2023/12/16 01:26:37;;;;;;;12.30;3.72;;;;;;;9.42;66.24;103852.81;6196656;23;20029;-71
2023/12/16 01:29:04;;;;;;;10.90;4.00;;;;;;;9.40;66.29;103852.09;6195971;23;20344;-71
2023/12/16 01:31:32;;;;;;;11.13;3.53;;;;;;;9.39;66.61;103850.41;6196028;23;20060;-71
2023/12/16 01:34:01;;;;;;;11.38;3.40;;;;;;;9.39;66.75;103848.56;6196526;23;20020;-71
2023/12/16 01:36:29;;;;;;;11.57;3.42;;;;;;;9.40;66.03;103857.47;6196302;23;20049;-71
2023/12/16 01:38:57;;;;;;;10.70;3.10;;;;;;;9.41;66.41;103856.47;6195726;23;20025;-71
2023/12/16 01:41:25;;;;;;;12.85;4.00;;;;;;;9.38;66.27;103844.19;6195925;23;20077;-71
2023/12/16 01:43:53;;;;;;;9.98;3.20;;;;;;;9.40;66.21;103827.94;6195116;23;20044;-71
2023/12/16 01:46:23;;;;;;;12.65;3.80;;;;;;;9.40;66.05;103827.94;6196064;23;20021;-71
2023/12/16 01:48:51;;;;;;;9.55;3.35;;;;;;;9.39;66.30;103834.31;6196547;23;20021;-71
2023/12/16 01:51:20;;;;;;;7.32;2.90;;;;;;;9.39;65.94;103839.66;6194337;23;20095;-71
2023/12/16 01:53:48;;;;;;;11.20;3.05;;;;;;;9.38;65.96;103838.81;6196182;23;20017;-71
2023/12/16 01:56:16;;;;;;;12.48;3.65;;;;;;;9.37;65.72;103837.13;6196193;23;20048;-71
2023/12/16 01:58:44;;;;;;;6.97;2.83;;;;;;;9.37;65.84;103837.13;6195941;23;20021;-71
2023/12/16 02:01:12;;;;;;;8.52;2.85;;;;;;;9.36;66.22;103835.44;6195384;23;20353;-71
2023/12/16 02:03:42;;;;;;;10.10;3.20;;;;;;;9.37;66.07;103836.28;6196589;23;20025;-71
2023/12/16 02:06:09;;;;;;;13.63;3.58;;;;;;;9.37;66.47;103847.00;6196211;23;20025;-71
2023/12/16 02:08:39;;;;;;;11.73;3.53;;;;;;;9.36;65.99;103848.84;6195621;23;20518;-72
2023/12/16 02:11:10;;;;;;;10.85;3.75;;;;;;;9.36;66.21;103843.47;6196269;23;20021;-71
2023/12/16 02:13:37;;;;;;;10.45;3.53;;;;;;;9.36;65.81;103842.63;6195762;23;20021;-71
2023/12/16 02:16:06;;;;;;;11.52;3.10;;;;;;;9.35;65.48;103852.53;6196033;23;20025;-71
2023/12/16 02:18:34;;;;;;;10.82;3.22;;;;;;;9.35;65.80;103849.84;6195544;23;20032;-71
2023/12/16 02:21:02;;;;;;;12.90;2.90;;;;;;;9.34;66.13;103837.41;6195166;23;20031;-71
2023/12/16 02:23:32;;;;;;;10.25;3.15;;;;;;;9.34;66.11;103840.09;6194397;23;20021;-71
2023/12/16 02:26:01;;;;;;;9.15;2.97;;;;;;;9.34;65.85;103844.63;6196292;23;20358;-72
2023/12/16 02:28:30;;;;;;;10.18;3.17;;;;;;;9.32;65.78;103834.00;6196128;23;20439;-72
2023/12/16 02:30:58;;;;;;;7.90;3.13;;;;;;;9.32;66.14;103839.38;6195452;23;20056;-71
2023/12/16 02:33:26;;;;;;;10.70;3.13;;;;;;;9.32;66.29;103830.47;6195756;23;20024;-72
2023/12/16 02:35:54;;;;;;;8.05;2.72;;;;;;;9.32;66.05;103825.97;6195367;23;20116;-72
2023/12/16 02:38:22;;;;;;;7.18;2.80;;;;;;;9.32;65.71;103817.91;6195571;23;20025;-71
2023/12/16 02:40:51;;;;;;;12.00;3.25;;;;;;;9.34;66.28;103829.34;6195614;23;20032;-71
2023/12/16 02:43:20;;;;;;;10.48;3.13;;;;;;;9.29;65.82;103828.94;6196036;23;20028;-71
2023/12/16 02:45:48;;;;;;;11.75;2.80;;;;;;;9.33;65.56;103842.91;6194757;23;20450;-70
2023/12/16 02:48:16;;;;;;;13.25;2.67;;;;;;;9.32;66.10;103842.06;6196234;23;20135;-70
2023/12/16 02:50:44;;;;;;;9.30;3.22;;;;;;;9.34;65.92;103852.66;6194579;23;20064;-70
2023/12/16 02:53:12;;;;;;;12.05;2.90;;;;;;;9.31;65.90;103850.25;6195579;23;20021;-71
2023/12/16 02:55:40;;;;;;;10.43;3.15;;;;;;;9.31;66.02;103851.09;6195481;23;20025;-71
2023/12/16 02:58:09;;;;;;;9.63;2.72;;;;;;;9.30;65.79;103859.28;6195881;23;20025;-71
2023/12/16 03:00:37;;;;;;;15.60;3.72;;;;;;;9.31;66.00;103851.09;6193959;23;20039;-71
2023/12/16 03:03:04;;;;;;;8.50;3.38;;;;;;;9.31;65.52;103845.75;6195875;23;20025;-72
2023/12/16 03:05:32;;;;;;;8.70;3.33;;;;;;;9.31;65.53;103844.88;6194020;23;20037;-71
2023/12/16 03:08:00;;;;;;;9.18;4.05;;;;;;;9.30;66.04;103840.50;6195456;23;20041;-71
2023/12/16 03:10:28;;;;;;;8.68;2.92;;;;;;;9.29;65.38;103834.28;6194448;23;20029;-72
2023/12/16 03:12:56;;;;;;;10.00;2.95;;;;;;;9.29;65.22;103834.28;6196101;23;20092;-71
2023/12/16 03:15:26;;;;;;;11.80;3.00;;;;;;;9.28;65.31;103834.44;6195001;23;20047;-71
2023/12/16 03:17:53;;;;;;;8.82;2.92;;;;;;;9.25;65.51;103821.28;6195936;23;20143;-70
2023/12/16 03:20:21;;;;;;;10.55;3.22;;;;;;;9.26;65.87;103828.34;6194137;23;20025;-71
2023/12/16 03:22:49;;;;;;;10.23;3.63;;;;;;;9.26;65.90;103831.03;6194776;23;20025;-72
2023/12/16 03:25:17;;;;;;;10.15;3.17;;;;;;;9.24;65.45;103833.88;6195157;23;20048;-71
2023/12/16 03:27:45;;;;;;;7.70;2.92;;;;;;;9.23;65.52;103829.50;6196036;23;20025;-71
2023/12/16 03:30:13;;;;;;;7.68;2.85;;;;;;;9.23;65.57;103832.16;6193844;23;20036;-71
2023/12/16 03:32:42;;;;;;;10.85;2.78;;;;;;;9.21;65.93;103833.31;6195167;23;20044;-71
2023/12/16 03:35:10;;;;;;;8.27;3.17;;;;;;;9.19;65.49;103833.44;6193912;23;20021;-71
2023/12/16 03:37:38;;;;;;;12.10;3.13;;;;;;;9.17;65.36;103832.72;6195100;23;20091;-70
2023/12/16 03:40:07;;;;;;;14.80;3.45;;;;;;;9.20;65.97;103845.88;6195167;23;20021;-70
2023/12/16 03:42:35;;;;;;;11.45;3.42;;;;;;;9.17;66.03;103850.66;6195317;23;20220;-71
2023/12/16 03:45:03;;;;;;;10.18;3.13;;;;;;;9.16;66.28;103847.13;6195169;23;20088;-70
2023/12/16 03:47:31;;;;;;;15.98;4.38;;;;;;;9.17;66.33;103850.66;6195763;23;20108;-71
2023/12/16 03:50:00;;;;;;;9.25;3.40;;;;;;;9.16;65.65;103851.66;6194220;23;20033;-71
2023/12/16 03:52:28;;;;;;;10.95;3.70;;;;;;;9.16;66.05;103847.13;6194629;23;20036;-71
2023/12/16 03:54:55;;;;;;;10.55;3.90;;;;;;;9.14;65.94;103844.59;6195174;23;20020;-71
2023/12/16 03:57:23;;;;;;;10.32;3.45;;;;;;;9.14;65.49;103847.28;6195333;23;20052;-71
2023/12/16 03:59:51;;;;;;;10.23;3.30;;;;;;;9.14;65.53;103841.91;6194167;23;20077;-70
2023/12/16 04:02:19;;;;;;;11.18;3.25;;;;;;;9.13;65.58;103845.56;6195442;23;20025;-70
2023/12/16 04:04:47;;;;;;;8.13;3.15;;;;;;;9.14;65.73;103852.63;6193921;23;20020;-71
2023/12/16 04:07:16;;;;;;;7.75;2.80;;;;;;;9.15;65.53;103840.06;6195593;23;20025;-70
2023/12/16 04:09:44;;;;;;;9.23;3.35;;;;;;;9.14;65.63;103852.63;6197276;23;20084;-71
2023/12/16 04:12:12;;;;;;;13.48;3.20;;;;;;;9.14;65.67;103846.41;6197082;23;20095;-71
2023/12/16 04:14:40;;;;;;;16.30;3.88;;;;;;;9.13;65.47;103847.41;6196748;23;20089;-71
2023/12/16 04:17:08;;;;;;;13.00;3.80;;;;;;;9.14;65.47;103847.28;6198007;23;20091;-71
2023/12/16 04:19:38;;;;;;;12.07;3.65;;;;;;;9.13;65.55;103850.94;6195406;23;20564;-70
2023/12/16 04:22:06;;;;;;;8.95;2.90;;;;;;;9.12;65.60;103846.56;6197018;23;20411;-70
2023/12/16 04:24:36;;;;;;;10.57;3.20;;;;;;;9.12;65.17;103840.34;6196481;23;20029;-70
2023/12/16 04:27:04;;;;;;;11.02;3.05;;;;;;;9.12;65.82;103845.72;6197861;23;20557;-70
2023/12/16 04:29:32;;;;;;;9.27;3.10;;;;;;;9.10;65.72;103835.13;6195921;23;20025;-71
2023/12/16 04:31:59;;;;;;;8.15;2.90;;;;;;;9.11;65.49;103844.88;6197330;23;20021;-71
2023/12/16 04:34:27;;;;;;;9.63;2.85;;;;;;;9.09;65.50;103846.84;6195656;23;20018;-71
2023/12/16 04:36:55;;;;;;;10.52;3.03;;;;;;;9.02;65.47;103832.28;6197531;23;20044;-71
2023/12/16 04:39:23;;;;;;;7.88;3.15;;;;;;;9.09;65.46;103837.94;6196268;23;20052;-72
2023/12/16 04:41:52;;;;;;;10.10;3.17;;;;;;;9.10;65.70;103839.63;6194684;23;20029;-70
2023/12/16 04:44:20;;;;;;;11.90;3.88;;;;;;;9.09;65.74;103844.16;6192468;23;20025;-71
2023/12/16 04:46:47;;;;;;;13.45;3.10;;;;;;;9.08;65.97;103845.16;6193041;23;20025;-70
2023/12/16 04:49:15;;;;;;;10.68;3.33;;;;;;;9.11;65.81;103841.34;6192952;23;20033;-71
2023/12/16 04:51:43;;;;;;;11.55;4.18;;;;;;;9.10;65.72;103834.28;6191865;23;20303;-70
2023/12/16 04:54:11;;;;;;;10.75;3.38;;;;;;;9.10;65.75;103828.91;6191451;23;20025;-71
2023/12/16 04:56:39;;;;;;;15.40;3.75;;;;;;;9.09;65.48;103828.06;6192801;23;20025;-71
2023/12/16 04:59:08;;;;;;;11.98;3.45;;;;;;;9.10;65.84;103828.91;6192607;23;20029;-71
2023/12/16 05:01:37;;;;;;;12.93;3.40;;;;;;;9.09;65.81;103830.75;6193249;23;20533;-70
2023/12/16 05:04:05;;;;;;;10.57;3.25;;;;;;;9.10;65.37;103834.28;6192352;23;20029;-70
2023/12/16 05:06:33;;;;;;;12.00;3.70;;;;;;;9.09;65.54;103828.06;6191322;23;20052;-70
2023/12/16 05:09:01;;;;;;;7.88;3.92;;;;;;;9.09;65.88;103838.78;6191575;23;20029;-70
2023/12/16 05:11:29;;;;;;;13.65;4.13;;;;;;;9.08;66.15;103839.78;6191907;23;20079;-70
2023/12/16 05:13:57;;;;;;;10.43;3.17;;;;;;;9.06;65.82;103839.06;6192691;23;20072;-70
2023/12/16 05:16:27;;;;;;;12.82;3.25;;;;;;;9.08;65.58;103833.56;6193139;23;20032;-70
2023/12/16 05:18:55;;;;;;;7.00;2.78;;;;;;;9.06;65.80;103835.53;6190973;23;20341;-71
2023/12/16 05:21:23;;;;;;;12.27;3.50;;;;;;;9.07;65.60;103837.22;6190485;23;20027;-71
2023/12/16 05:23:51;;;;;;;10.82;3.90;;;;;;;9.06;66.00;103838.22;6192224;23;20028;-71
2023/12/16 05:26:21;;;;;;;11.32;3.63;;;;;;;9.05;66.06;103837.38;6192001;23;20025;-70
2023/12/16 05:28:49;;;;;;;13.02;3.88;;;;;;;9.05;66.04;103828.47;6191498;23;20028;-71
2023/12/16 05:31:16;;;;;;;14.73;3.47;;;;;;;9.04;66.18;103840.19;6190939;23;20091;-71
2023/12/16 05:33:46;;;;;;;8.77;2.80;;;;;;;9.04;66.00;103845.56;6192395;23;20044;-70
2023/12/16 05:36:14;;;;;;;17.42;3.25;;;;;;;8.96;65.56;103837.34;6191112;23;20025;-70
2023/12/16 05:38:42;;;;;;;13.77;4.03;;;;;;;9.02;66.04;103848.38;6192648;23;20025;-70
2023/12/16 05:41:13;;;;;;;10.68;3.10;;;;;;;9.01;66.12;103845.84;6192354;23;20673;-69
2023/12/16 05:43:41;;;;;;;10.98;3.58;;;;;;;8.99;65.86;103837.91;6192669;23;20048;-72
2023/12/16 05:46:08;;;;;;;8.25;2.83;;;;;;;8.99;66.01;103843.28;6192049;23;20025;-70
2023/12/16 05:48:36;;;;;;;9.45;3.45;;;;;;;8.99;66.14;103847.81;6192067;23;20029;-67
2023/12/16 05:51:06;;;;;;;15.55;3.92;;;;;;;8.99;65.70;103850.50;6191341;23;20049;-68
2023/12/16 05:53:34;;;;;;;15.73;3.45;;;;;;;8.96;65.47;103854.28;6190649;23;20849;-70
2023/12/16 05:56:05;;;;;;;12.63;3.25;;;;;;;8.97;65.51;103853.31;6192173;23;20031;-70
2023/12/16 05:58:33;;;;;;;20.25;3.95;;;;;;;8.96;65.72;103851.59;6191151;23;20052;-70
2023/12/16 06:01:01;;;;;;;12.77;3.20;;;;;;;8.98;65.75;103851.47;6191911;23;20028;-71
2023/12/16 06:03:29;;;;;;;13.38;3.58;;;;;;;8.96;65.49;103845.41;6192255;23;20055;-69
2023/12/16 06:05:57;;;;;;;13.27;3.47;;;;;;;8.95;65.86;103849.06;6190653;23;20017;-69
2023/12/16 06:08:26;;;;;;;13.82;3.10;;;;;;;8.93;65.91;103838.47;6191677;23;20029;-70
2023/12/16 06:10:54;;;;;;;8.25;3.08;;;;;;;8.93;65.73;103843.84;6191086;23;20029;-69
2023/12/16 06:13:22;;;;;;;8.48;3.00;;;;;;;8.92;65.73;103842.16;6191123;23;20024;-69
2023/12/16 06:15:50;;;;;;;10.65;3.65;;;;;;;8.92;65.90;103842.16;6190747;23;20025;-68
2023/12/16 06:18:34;;;;;;;11.23;3.25;;;;;;;8.91;65.81;103848.50;6191071;23;20068;-70
2023/12/16 06:21:02;;;;;;;13.68;4.22;;;;;;;8.90;65.88;103852.16;6190493;23;20362;-68
2023/12/16 06:23:32;;;;;;;11.55;3.75;;;;;;;8.90;65.61;103862.03;6191431;23;20029;-68
2023/12/16 06:26:00;;;;;;;11.02;3.55;;;;;;;8.90;65.78;103859.34;6191711;23;20398;-69
2023/12/16 06:28:28;;;;;;;9.48;3.20;;;;;;;8.88;65.96;103859.50;6192099;23;20472;-69
2023/12/16 06:30:56;;;;;;;8.43;2.83;;;;;;;8.86;65.85;103850.75;6190526;23;20039;-69
2023/12/16 06:33:24;;;;;;;12.23;3.42;;;;;;;8.86;66.39;103853.41;6192531;23;20025;-70
2023/12/16 06:35:54;;;;;;;15.13;4.05;;;;;;;8.83;66.30;103851.00;6190528;23;20107;-68
2023/12/16 06:38:21;;;;;;;7.63;2.80;;;;;;;8.85;65.99;103848.19;6190945;23;20036;-69
2023/12/16 06:40:50;;;;;;;16.15;3.90;;;;;;;8.79;64.40;103852.25;6190924;23;20091;-69
2023/12/16 06:43:18;;;;;;;13.38;3.75;;;;;;;8.70;64.05;103842.34;6190486;23;20029;-71
2023/12/16 06:45:46;;;;;;;12.80;3.72;;;;;;;8.62;63.74;103840.38;6191205;23;20035;-71
2023/12/16 06:48:14;;;;;;;21.50;5.97;;;;;;;8.56;64.05;103843.63;6192160;23;20029;-73
2023/12/16 06:50:42;;;;;;;14.00;3.42;;;;;;;8.58;63.64;103841.66;6190065;23;20131;-70
2023/12/16 06:53:11;;;;;;;17.40;3.38;;;;;;;8.62;63.99;103845.75;6191396;23;20076;-68
2023/12/16 06:55:39;;;;;;;15.27;3.75;;;;;;;8.67;63.96;103848.00;6191257;23;20021;-68
2023/12/16 06:58:08;;;;;;;13.13;3.92;;;;;;;8.69;64.87;103844.19;6192422;23;20029;-70
2023/12/16 07:00:36;;;;;;;14.00;3.80;;;;;;;8.71;64.47;103850.25;6190431;23;20036;-69
2023/12/16 07:03:04;;;;;;;14.90;3.78;;;;;;;8.73;64.67;103853.66;6191727;23;20028;-70
2023/12/16 07:05:33;;;;;;;17.15;3.92;;;;;;;8.74;65.28;103855.34;6189469;23;20025;-70
2023/12/16 07:08:02;;;;;;;12.27;3.63;;;;;;;8.74;65.34;103852.69;6191253;23;20056;-71
2023/12/16 07:10:29;;;;;;;15.05;3.85;;;;;;;8.75;64.84;103851.69;6190857;23;20039;-72
2023/12/16 07:12:57;;;;;;;13.05;3.60;;;;;;;8.75;65.04;103854.38;6191490;23;20433;-68
2023/12/16 07:15:27;;;;;;;14.07;3.60;;;;;;;8.76;64.86;103860.59;6191101;23;20052;-69
2023/12/16 07:17:54;;;;;;;12.73;3.70;;;;;;;8.77;65.20;103870.31;6191556;23;20033;-70
2023/12/16 07:20:22;;;;;;;9.63;3.40;;;;;;;8.77;64.84;103870.31;6190617;23;20025;-71
2023/12/16 07:22:50;;;;;;;17.13;3.85;;;;;;;8.77;64.86;103873.84;6190370;23;20029;-70
2023/12/16 07:25:18;;;;;;;8.23;2.92;;;;;;;8.77;65.43;103875.69;6190147;23;20060;-70
2023/12/16 07:27:46;;;;;;;7.75;2.85;;;;;;;8.77;65.00;103876.53;6190247;23;20111;-68
2023/12/16 07:30:16;;;;;;;11.13;3.83;;;;;;;8.77;65.17;103871.19;6190048;23;20025;-69
2023/12/16 07:32:45;;;;;;;14.60;3.40;;;;;;;8.78;65.36;103874.72;6190200;23;20112;-66
2023/12/16 07:35:15;;;;;;;7.47;3.08;;;;;;;8.79;65.39;103876.41;6189421;23;20340;-68
2023/12/16 07:37:43;;;;;;;10.23;2.78;;;;;;;8.76;65.31;103884.72;6190135;23;20132;-69
2023/12/16 07:40:12;;;;;;;12.32;3.42;;;;;;;8.78;65.86;103888.13;6191029;23;20025;-68
2023/12/16 07:42:40;;;;;;;14.55;3.95;;;;;;;8.77;65.44;103881.91;6190684;23;20242;-68
2023/12/16 07:45:09;;;;;;;11.32;3.08;;;;;;;8.77;65.43;103879.22;6189677;23;20025;-68
2023/12/16 07:47:38;;;;;;;11.45;2.88;;;;;;;8.80;65.05;103883.47;6191949;23;20052;-68
2023/12/16 07:50:10;;;;;;;9.75;3.40;;;;;;;8.92;65.52;103886.91;6190463;23;20132;-68
2023/12/16 07:52:38;;;;;;;8.30;2.67;;;;;;;9.07;64.44;103888.22;6190514;23;20077;-69
2023/12/16 07:55:06;;;;;;;8.48;2.90;;;;;;;9.25;63.68;103896.44;6188929;23;20029;-69
2023/12/16 07:57:34;;;;;;;11.52;2.83;;;;;;;9.43;63.29;103889.41;6192428;23;20025;-69
2023/12/16 08:00:02;;;;;;;11.45;2.88;;;;;;;9.59;63.01;103886.16;6189928;23;20032;-69
2023/12/16 08:02:30;;;;;;;10.18;2.67;;;;;;;9.77;62.32;103887.16;6190537;23;20179;-66
2023/12/16 08:04:58;;;;;;;12.80;3.92;;;;;;;9.89;61.95;103885.16;6188510;23;20033;-68
2023/12/16 08:07:27;;;;;;;12.52;3.38;;;;;;;10.09;61.42;103894.91;6190362;23;20490;-70
2023/12/16 08:09:55;;;;;;;10.50;2.65;;;;;;;10.17;60.82;103899.56;6191159;23;20055;-69
2023/12/16 08:12:23;;;;;;;10.13;2.65;;;;;;;10.14;60.71;103906.06;6190162;23;20033;-69
2023/12/16 08:14:51;;;;;;;9.50;2.80;;;;;;;10.02;61.10;103901.84;6191092;23;20545;-72
2023/12/16 08:17:19;;;;;;;13.45;3.00;;;;;;;9.88;61.42;103911.19;6190197;23;20029;-69
2023/12/16 08:19:47;;;;;;;13.45;2.97;;;;;;;9.73;62.37;103912.59;6190425;23;20355;-68
2023/12/16 08:22:14;;;;;;;9.27;2.70;;;;;;;9.59;62.29;103916.53;6190565;23;20088;-70
2023/12/16 08:24:43;;;;;;;9.68;2.63;;;;;;;9.48;63.27;103919.38;6190395;23;20483;-69
2023/12/16 08:27:11;;;;;;;9.30;2.75;;;;;;;9.39;63.19;103915.69;6191175;23;20393;-69
2023/12/16 08:29:39;;;;;;;12.30;3.55;;;;;;;9.28;63.65;103907.75;6190487;23;20029;-69
2023/12/16 08:32:07;;;;;;;11.00;3.50;;;;;;;9.25;63.57;103907.16;6190741;23;20439;-69
2023/12/16 08:34:35;;;;;;;13.00;3.03;;;;;;;9.21;63.66;103911.13;6189995;23;20025;-70
2023/12/16 08:37:04;;;;;;;10.35;2.90;;;;;;;9.11;63.79;103903.91;6190756;23;20109;-68
2023/12/16 08:39:32;;;;;;;10.75;2.85;;;;;;;9.15;64.23;103912.50;6190015;23;20101;-69
2023/12/16 08:42:01;;;;;;;13.77;2.88;;;;;;;9.11;64.13;103921.81;6190717;23;20051;-69
2023/12/16 08:44:32;;;;;;;8.70;3.33;;;;;;;9.08;64.63;103922.94;6190405;23;20025;-68
2023/12/16 08:47:02;;;;;;;9.85;3.15;;;;;;;9.05;64.50;103920.53;6191558;23;20021;-68
2023/12/16 08:49:32;;;;;;;9.38;2.80;;;;;;;9.01;64.58;103919.13;6194261;23;20025;-66
2023/12/16 08:52:00;;;;;;;11.02;2.90;;;;;;;9.00;64.80;103920.09;6194090;23;20024;-68
2023/12/16 08:54:28;;;;;;;16.00;3.20;;;;;;;8.99;64.74;103920.22;6195691;23;20341;-66
2023/12/16 08:56:56;;;;;;;11.70;2.63;;;;;;;8.97;64.01;103917.69;6197028;23;20101;-66
2023/12/16 08:59:25;;;;;;;12.40;2.75;;;;;;;8.96;64.61;103924.03;6196806;23;20087;-67
2023/12/16 09:01:53;;;;;;;8.88;2.50;;;;;;;8.92;64.63;103933.34;6197628;23;20025;-68
2023/12/16 09:04:21;;;;;;;13.07;3.20;;;;;;;8.93;64.78;103921.63;6195867;23;20481;-68
2023/12/16 09:06:49;;;;;;;10.68;2.65;;;;;;;8.91;64.89;103918.22;6197256;23;20134;-68
2023/12/16 09:09:17;;;;;;;6.05;2.47;;;;;;;8.89;64.83;103920.19;6196555;23;20032;-67
2023/12/16 09:11:45;;;;;;;16.73;4.18;;;;;;;8.89;64.74;103920.19;6197204;23;20055;-67
2023/12/16 09:14:12;;;;;;;9.88;2.90;;;;;;;8.90;65.55;103908.47;6195976;23;20398;-67
2023/12/16 09:16:42;;;;;;;10.68;3.42;;;;;;;8.89;65.07;103913.97;6197029;23;20068;-68
2023/12/16 09:19:11;;;;;;;9.55;2.83;;;;;;;8.89;65.33;103913.97;6197064;23;20045;-68
2023/12/16 09:21:40;;;;;;;13.73;2.95;;;;;;;8.87;65.01;103922.16;6196126;23;20028;-68
2023/12/16 09:24:08;;;;;;;9.35;2.72;;;;;;;8.87;65.32;103930.22;6196097;23;20025;-68
2023/12/16 09:26:35;;;;;;;11.23;3.20;;;;;;;8.87;65.61;103932.03;6197013;23;20442;-67
2023/12/16 09:29:05;;;;;;;13.25;3.88;;;;;;;8.86;65.29;103931.19;6196274;23;20091;-68
2023/12/16 09:31:33;;;;;;;11.85;3.00;;;;;;;8.86;66.20;103933.88;6196707;23;20021;-68
2023/12/16 09:34:03;;;;;;;8.05;2.92;;;;;;;8.87;65.46;103924.00;6196610;23;20025;-68
2023/12/16 09:36:31;;;;;;;10.27;2.67;;;;;;;8.86;65.97;103933.03;6195823;23;20072;-68
2023/12/16 09:38:59;;;;;;;12.65;3.28;;;;;;;8.87;66.06;103929.38;6195846;23;20115;-68
2023/12/16 09:41:29;;;;;;;9.18;3.00;;;;;;;8.83;66.05;103931.47;6196773;23;20025;-68
2023/12/16 09:43:58;;;;;;;13.40;3.03;;;;;;;8.87;66.24;103940.94;6197184;23;20021;-68
2023/12/16 09:46:29;;;;;;;9.88;2.45;;;;;;;8.86;66.21;103947.28;6196305;23;20025;-68
2023/12/16 09:48:57;;;;;;;11.68;2.45;;;;;;;8.88;66.16;103949.84;6196817;23;20021;-68
2023/12/16 09:51:26;;;;;;;14.65;3.17;;;;;;;8.86;66.06;103949.13;6195132;23;20439;-68
2023/12/16 09:53:54;;;;;;;15.35;2.97;;;;;;;8.89;66.10;103941.66;6196532;23;20090;-68
2023/12/16 09:56:22;;;;;;;11.85;3.00;;;;;;;8.88;66.53;103942.63;6196345;23;20294;-68
2023/12/16 09:58:51;;;;;;;12.93;3.30;;;;;;;8.91;66.59;103936.16;6196730;23;20246;-68
2023/12/16 10:01:20;;;;;;;8.70;2.67;;;;;;;8.92;66.39;103941.38;6193780;23;20059;-67
2023/12/16 10:03:48;;;;;;;13.27;2.75;;;;;;;8.93;66.34;103944.91;6196327;23;20024;-69
2023/12/16 10:06:16;;;;;;;10.90;2.42;;;;;;;8.86;66.77;103933.03;6194583;23;20029;-69
2023/12/16 10:08:46;;;;;;;26.08;3.88;;;;;;;8.94;66.97;103944.78;6195599;23;20021;-67
2023/12/16 10:11:15;;;;;;;6.68;2.83;;;;;;;8.93;67.03;103948.44;6195743;23;20111;-68
2023/12/16 10:13:57;;;;;;;11.35;2.90;;;;;;;9.06;66.51;103951.75;6196291;23;20017;-69
2023/12/16 10:16:25;;;;;;;10.88;2.40;;;;;;;9.24;66.39;103945.72;6195643;23;20025;-70
2023/12/16 10:18:54;;;;;;;15.15;3.45;;;;;;;9.43;65.82;103953.84;6195818;23;20025;-69
2023/12/16 10:21:24;;;;;;;16.70;2.92;;;;;;;9.62;65.18;103958.38;6194183;23;20035;-70
2023/12/16 10:23:56;;;;;;;9.80;2.88;;;;;;;9.82;64.41;103954.72;6195444;23;20334;-69
2023/12/16 10:26:25;;;;;;;14.88;3.63;;;;;;;9.98;63.88;103952.31;6195507;23;20025;-70
2023/12/16 10:28:54;;;;;;;9.00;2.70;;;;;;;10.06;63.53;103952.47;6192595;23;20017;-67
2023/12/16 10:31:24;;;;;;;12.43;2.88;;;;;;;10.07;63.63;103956.00;6191342;23;20095;-67
2023/12/16 10:33:52;;;;;;;11.90;3.25;;;;;;;10.00;63.94;103950.34;6192410;23;20029;-67
2023/12/16 10:36:20;;;;;;;11.40;3.10;;;;;;;9.90;64.36;103945.97;6191083;23;20565;-67
2023/12/16 10:38:48;;;;;;;10.93;2.95;;;;;;;9.81;64.54;103954.88;6191063;23;20028;-67
2023/12/16 10:41:17;;;;;;;13.80;3.35;;;;;;;9.72;64.95;103952.03;6191069;23;20029;-66
2023/12/16 10:43:45;;;;;;;14.77;3.15;;;;;;;9.66;65.49;103954.44;6192488;23;20116;-67
2023/12/16 10:46:17;;;;;;;14.88;2.83;;;;;;;9.62;65.64;103951.19;6191169;23;20029;-66
2023/12/16 10:48:48;;;;;;;10.38;2.60;;;;;;;9.52;65.43;103946.78;6191875;23;20124;-67
2023/12/16 10:51:17;;;;;;;18.02;3.60;;;;;;;9.54;65.83;103945.66;6194218;23;20024;-67
2023/12/16 10:53:57;;;;;;;12.18;3.08;;;;;;;9.49;65.95;103945.22;6195416;23;20036;-68
2023/12/16 10:56:29;;;;;;;10.90;3.17;;;;;;;9.48;66.42;103946.22;6195295;23;20021;-68
2023/12/16 10:59:05;;;;;;;12.20;3.50;;;;;;;9.46;66.30;103946.34;6195920;23;20092;-69
2023/12/16 11:01:35;;;;;;;11.20;3.83;;;;;;;9.43;66.39;103941.25;6195216;23;20021;-69
2023/12/16 11:04:11;;;;;;;10.13;2.90;;;;;;;9.41;67.09;103935.19;6196005;23;20347;-69
2023/12/16 11:06:45;;;;;;;9.20;2.33;;;;;;;9.39;66.87;103933.63;6195758;23;20021;-67
2023/12/16 11:09:13;;;;;;;12.00;2.90;;;;;;;9.37;66.73;103943.66;6195455;23;20303;-69
2023/12/16 11:11:43;;;;;;;12.55;2.80;;;;;;;9.35;67.31;103935.72;6196131;23;20052;-67
2023/12/16 11:14:12;;;;;;;11.38;2.80;;;;;;;9.33;67.02;103929.66;6196203;23;20052;-67
2023/12/16 11:16:50;;;;;;;13.20;3.03;;;;;;;9.33;67.16;103932.34;6192913;23;20036;-73
2023/12/16 11:19:20;;;;;;;10.70;2.95;;;;;;;9.33;67.21;103918.91;6191813;23;20079;-67
2023/12/16 11:21:50;;;;;;;9.63;3.10;;;;;;;9.34;67.45;103923.28;6190795;23;20029;-65
2023/12/16 11:24:18;;;;;;;12.20;2.97;;;;;;;9.33;67.70;103912.69;6190914;23;20083;-65
2023/12/16 11:26:52;;;;;;;14.18;3.75;;;;;;;9.29;67.58;103913.97;6191090;23;20105;-66
2023/12/16 11:29:21;;;;;;;12.32;3.30;;;;;;;9.32;67.46;103914.53;6191216;23;20103;-65
2023/12/16 11:31:52;;;;;;;11.85;2.70;;;;;;;9.34;67.62;103911.72;6190997;23;20132;-65